createdAt,value
2022-10-09T00:00:09.043Z,52.20
2022-10-09T00:02:56.002Z,51.58
2022-10-09T00:05:23.814Z,51.64
2022-10-09T00:07:50.922Z,51.98
2022-10-09T00:10:17.810Z,52.03
2022-10-09T00:12:44.624Z,51.58
2022-10-09T00:15:11.878Z,51.98
2022-10-09T00:17:38.723Z,51.77
2022-10-09T00:20:05.941Z,52.15
2022-10-09T00:22:33.791Z,51.80
2022-10-09T00:25:00.581Z,51.99
2022-10-09T00:27:27.390Z,51.75
2022-10-09T00:29:54.425Z,51.79
2022-10-09T00:32:21.335Z,52.04
2022-10-09T00:34:48.178Z,52.06
2022-10-09T00:37:15.215Z,52.08
2022-10-09T00:39:42.125Z,51.93
2022-10-09T00:42:12.313Z,51.68
2022-10-09T00:44:48.596Z,51.85
2022-10-09T00:47:23.438Z,51.88
2022-10-09T00:49:52.970Z,52.23
2022-10-09T00:52:19.965Z,51.66
2022-10-09T00:54:46.734Z,51.80
2022-10-09T00:57:13.709Z,51.94
2022-10-09T00:59:40.532Z,51.80
2022-10-09T01:02:07.523Z,52.04
2022-10-09T01:04:34.661Z,51.76
2022-10-09T01:07:19.119Z,51.99
2022-10-09T01:09:55.870Z,52.10
2022-10-09T01:12:47.772Z,52.16
2022-10-09T01:15:21.601Z,52.01
2022-10-09T01:18:13.284Z,52.05
2022-10-09T01:20:45.158Z,52.21
2022-10-09T01:23:33.767Z,51.82
2022-10-09T01:26:26.968Z,52.10
2022-10-09T01:28:56.696Z,52.17
2022-10-09T01:31:24.785Z,51.90
2022-10-09T01:33:51.646Z,52.14
2022-10-09T01:36:18.450Z,52.25
2022-10-09T01:38:45.593Z,52.34
2022-10-09T01:41:12.426Z,52.31
2022-10-09T01:43:40.303Z,52.02
2022-10-09T01:46:18.667Z,51.87
2022-10-09T01:48:47.883Z,52.16
2022-10-09T01:51:14.855Z,52.04
2022-10-09T01:53:41.771Z,52.26
2022-10-09T01:56:11.494Z,52.19
2022-10-09T01:59:01.774Z,52.31
2022-10-09T02:01:30.141Z,52.12
2022-10-09T02:03:58.685Z,52.12
2022-10-09T02:06:25.441Z,52.10
2022-10-09T02:08:53.531Z,52.24
2022-10-09T02:11:20.820Z,52.19
2022-10-09T02:13:48.383Z,52.13
2022-10-09T02:16:37.629Z,52.30
2022-10-09T02:19:07.724Z,52.28
2022-10-09T02:21:54.544Z,52.41
2022-10-09T02:24:22.311Z,52.30
2022-10-09T02:26:49.859Z,52.30
2022-10-09T02:29:16.628Z,52.38
2022-10-09T02:31:43.806Z,52.18
2022-10-09T02:34:12.570Z,52.43
2022-10-09T02:36:39.531Z,52.28
2022-10-09T02:39:06.712Z,52.11
2022-10-09T02:41:33.518Z,52.26
2022-10-09T02:44:00.498Z,52.17
2022-10-09T02:46:27.618Z,52.39
2022-10-09T02:48:54.410Z,52.52
2022-10-09T02:51:21.329Z,52.19
2022-10-09T02:53:48.396Z,52.20
2022-10-09T02:56:15.186Z,52.49
2022-10-09T02:58:41.970Z,52.58
2022-10-09T03:01:08.945Z,52.68
2022-10-09T03:03:35.793Z,52.60
2022-10-09T03:06:09.386Z,52.66
2022-10-09T03:08:37.621Z,52.76
2022-10-09T03:11:05.178Z,52.58
2022-10-09T03:13:32.506Z,52.84
2022-10-09T03:16:13.677Z,52.75
2022-10-09T03:18:40.694Z,52.66
2022-10-09T03:21:08.445Z,52.67
2022-10-09T03:23:35.253Z,52.58
2022-10-09T03:26:04.192Z,52.52
2022-10-09T03:28:31.313Z,52.48
2022-10-09T03:30:58.540Z,52.60
2022-10-09T03:33:25.352Z,52.59
2022-10-09T03:35:52.446Z,52.79
2022-10-09T03:38:19.268Z,52.99
2022-10-09T03:40:46.059Z,52.90
2022-10-09T03:43:13.113Z,52.68
2022-10-09T03:45:40.811Z,52.81
2022-10-09T03:48:08.243Z,52.64
2022-10-09T03:50:35.295Z,52.91
2022-10-09T03:53:02.067Z,52.75
2022-10-09T03:55:28.942Z,52.95
2022-10-09T03:57:55.964Z,52.64
2022-10-09T04:00:22.812Z,52.68
2022-10-09T04:02:49.815Z,52.88
2022-10-09T04:05:17.313Z,52.68
2022-10-09T04:07:44.195Z,52.83
2022-10-09T04:10:11.003Z,52.98
2022-10-09T04:12:38.168Z,53.04
2022-10-09T04:15:05.175Z,52.79
2022-10-09T04:17:31.948Z,52.60
2022-10-09T04:19:59.021Z,52.92
2022-10-09T04:22:25.774Z,52.90
2022-10-09T04:24:52.603Z,53.03
2022-10-09T04:27:19.603Z,52.82
2022-10-09T04:29:46.365Z,52.84
2022-10-09T04:32:13.120Z,52.90
2022-10-09T04:34:40.159Z,52.76
2022-10-09T04:37:06.904Z,53.15
2022-10-09T04:39:33.672Z,52.92
2022-10-09T04:42:00.701Z,53.01
2022-10-09T04:44:27.532Z,53.00
2022-10-09T04:46:54.285Z,52.98
2022-10-09T04:49:21.332Z,52.90
2022-10-09T04:51:48.119Z,53.30
2022-10-09T04:54:14.963Z,53.00
2022-10-09T04:56:42.001Z,53.16
2022-10-09T04:59:08.813Z,52.93
2022-10-09T05:01:38.228Z,53.09
2022-10-09T05:04:05.579Z,53.37
2022-10-09T05:06:32.355Z,53.09
2022-10-09T05:08:59.159Z,53.06
2022-10-09T05:11:26.359Z,53.28
2022-10-09T05:13:56.352Z,53.38
2022-10-09T05:16:25.138Z,53.33
2022-10-09T05:18:53.811Z,53.08
2022-10-09T05:21:20.887Z,53.11
2022-10-09T05:23:47.827Z,53.28
2022-10-09T05:26:19.262Z,53.27
2022-10-09T05:28:46.457Z,53.14
2022-10-09T05:31:24.558Z,53.38
2022-10-09T05:33:51.683Z,53.25
2022-10-09T05:36:18.583Z,53.19
2022-10-09T05:38:45.531Z,53.31
2022-10-09T05:41:14.342Z,53.41
2022-10-09T05:43:42.607Z,53.66
2022-10-09T05:46:30.842Z,53.57
2022-10-09T05:49:01.703Z,53.34
2022-10-09T05:51:30.371Z,53.50
2022-10-09T05:53:57.507Z,53.66
2022-10-09T05:56:31.466Z,53.34
2022-10-09T05:59:00.076Z,53.43
2022-10-09T06:01:28.610Z,53.61
2022-10-09T06:03:56.801Z,54.25
2022-10-09T06:06:26.095Z,53.89
2022-10-09T06:08:52.937Z,54.14
2022-10-09T06:11:24.179Z,54.23
2022-10-09T06:13:51.406Z,54.06
2022-10-09T06:16:18.341Z,53.96
2022-10-09T06:18:49.272Z,54.04
2022-10-09T06:21:16.872Z,53.97
2022-10-09T06:23:43.753Z,53.83
2022-10-09T06:26:12.077Z,53.70
2022-10-09T06:28:39.289Z,53.64
2022-10-09T06:31:09.302Z,53.54
2022-10-09T06:33:37.761Z,53.32
2022-10-09T06:36:12.301Z,53.58
2022-10-09T06:38:41.005Z,53.59
2022-10-09T06:41:13.093Z,53.48
2022-10-09T06:43:40.479Z,53.23
2022-10-09T06:46:11.292Z,53.41
2022-10-09T06:48:39.150Z,53.47
2022-10-09T06:51:07.013Z,53.54
2022-10-09T06:53:41.325Z,53.43
2022-10-09T06:56:11.338Z,53.60
2022-10-09T06:58:38.541Z,53.40
2022-10-09T07:01:16.066Z,53.37
2022-10-09T07:03:44.589Z,53.18
2022-10-09T07:06:16.336Z,53.01
2022-10-09T07:08:44.549Z,53.18
2022-10-09T07:11:18.514Z,53.22
2022-10-09T07:13:45.312Z,53.09
2022-10-09T07:16:12.392Z,52.77
2022-10-09T07:18:39.376Z,52.63
2022-10-09T07:21:07.881Z,52.86
2022-10-09T07:23:35.325Z,52.74
2022-10-09T07:26:02.372Z,52.15
2022-10-09T07:28:29.630Z,52.63
2022-10-09T07:30:56.856Z,52.42
2022-10-09T07:33:23.737Z,52.17
2022-10-09T07:35:57.396Z,52.04
2022-10-09T07:38:24.642Z,52.47
2022-10-09T07:40:52.129Z,52.01
2022-10-09T07:43:19.028Z,51.78
2022-10-09T07:45:46.198Z,52.25
2022-10-09T07:48:13.380Z,51.84
2022-10-09T07:50:40.195Z,51.53
2022-10-09T07:53:08.739Z,51.80
2022-10-09T07:55:36.057Z,51.39
2022-10-09T07:58:02.903Z,51.36
2022-10-09T08:00:29.960Z,51.53
2022-10-09T08:02:56.847Z,51.48
2022-10-09T08:05:23.669Z,51.47
2022-10-09T08:07:50.683Z,51.50
2022-10-09T08:10:17.584Z,51.57
2022-10-09T08:12:44.336Z,51.40
2022-10-09T08:15:11.468Z,51.38
2022-10-09T08:17:38.265Z,51.47
2022-10-09T08:20:06.014Z,51.74
2022-10-09T08:22:33.159Z,51.30
2022-10-09T08:24:59.952Z,51.56
2022-10-09T08:27:26.772Z,51.27
2022-10-09T08:29:54.051Z,51.29
2022-10-09T08:32:20.825Z,51.04
2022-10-09T08:34:47.656Z,50.94
2022-10-09T08:37:14.807Z,50.99
2022-10-09T08:39:41.631Z,50.91
2022-10-09T08:42:35.610Z,51.09
2022-10-09T08:45:02.751Z,50.80
2022-10-09T08:47:38.232Z,50.99
2022-10-09T08:50:11.875Z,51.10
2022-10-09T08:52:49.838Z,51.07
2022-10-09T08:55:29.584Z,50.72
2022-10-09T08:57:57.409Z,50.87
2022-10-09T09:00:27.617Z,50.93
2022-10-09T09:03:16.166Z,51.13
2022-10-09T09:05:55.706Z,51.25
2022-10-09T09:08:26.459Z,50.69
2022-10-09T09:11:21.756Z,51.15
2022-10-09T09:14:00.560Z,50.98
2022-10-09T09:16:36.796Z,50.97
2022-10-09T09:19:25.043Z,50.75
2022-10-09T09:21:52.497Z,50.57
2022-10-09T09:24:33.495Z,50.94
2022-10-09T09:27:03.663Z,50.35
2022-10-09T09:29:30.554Z,50.31
2022-10-09T09:31:58.280Z,49.96
2022-10-09T09:34:29.883Z,50.03
2022-10-09T09:37:00.125Z,49.78
2022-10-09T09:40:24.258Z,49.54
2022-10-09T09:42:19.512Z,49.83
2022-10-09T09:44:50.098Z,49.83
2022-10-09T09:47:36.649Z,49.35
2022-10-09T09:50:04.459Z,49.16
2022-10-09T09:52:35.184Z,49.20
2022-10-09T09:55:02.003Z,49.14
2022-10-09T09:57:36.324Z,49.35
2022-10-09T10:00:16.803Z,49.28
2022-10-09T10:02:43.883Z,49.34
2022-10-09T10:05:18.492Z,49.34
2022-10-09T10:07:45.627Z,48.91
2022-10-09T10:10:25.508Z,48.12
2022-10-09T10:12:58.769Z,48.09
2022-10-09T10:15:26.537Z,48.26
2022-10-09T10:18:01.991Z,47.99
2022-10-09T10:20:30.184Z,47.69
2022-10-09T10:22:57.522Z,48.29
2022-10-09T10:25:31.350Z,48.17
2022-10-09T10:28:02.351Z,47.57
2022-10-09T10:30:29.185Z,48.04
2022-10-09T10:33:05.638Z,47.84
2022-10-09T10:35:36.145Z,47.36
2022-10-09T10:38:37.666Z,47.76
2022-10-09T10:41:22.391Z,47.89
2022-10-09T10:43:55.484Z,47.83
2022-10-09T10:46:26.296Z,47.62
2022-10-09T10:48:53.551Z,47.55
2022-10-09T10:51:33.891Z,46.89
2022-10-09T10:54:06.967Z,46.89
2022-10-09T10:57:04.790Z,46.47
2022-10-09T10:59:45.566Z,46.66
2022-10-09T11:02:32.944Z,46.99
2022-10-09T11:05:16.196Z,46.40
2022-10-09T11:08:01.602Z,46.14
2022-10-09T11:10:34.761Z,45.99
2022-10-09T11:13:28.822Z,46.29
2022-10-09T11:16:08.065Z,46.26
2022-10-09T11:19:12.135Z,46.80
2022-10-09T11:21:59.681Z,46.08
2022-10-09T11:24:57.410Z,46.19
2022-10-09T11:27:38.998Z,45.90
2022-10-09T11:30:10.642Z,45.85
2022-10-09T11:32:51.438Z,45.68
2022-10-09T11:35:22.837Z,45.63
2022-10-09T11:37:58.219Z,45.88
2022-10-09T11:40:37.110Z,45.91
2022-10-09T11:43:25.034Z,45.50
2022-10-09T11:46:15.625Z,45.64
2022-10-09T11:48:47.316Z,45.43
2022-10-09T11:51:23.577Z,44.56
2022-10-09T11:53:51.432Z,44.75
2022-10-09T11:56:26.136Z,44.99
2022-10-09T11:59:06.945Z,45.15
2022-10-09T12:01:38.336Z,44.93
2022-10-09T12:04:20.897Z,45.08
2022-10-09T12:07:01.523Z,45.02
2022-10-09T12:09:42.012Z,45.02
2022-10-09T12:12:18.492Z,45.49
2022-10-09T12:14:47.289Z,45.74
2022-10-09T12:17:23.360Z,45.37
2022-10-09T12:20:00.073Z,45.75
2022-10-09T12:22:34.933Z,45.63
2022-10-09T12:25:07.484Z,44.76
2022-10-09T12:27:36.411Z,44.78
2022-10-09T12:30:13.351Z,44.96
2022-10-09T12:32:59.335Z,45.14
2022-10-09T12:35:37.607Z,45.17
2022-10-09T12:38:25.349Z,45.35
2022-10-09T12:40:52.764Z,45.32
2022-10-09T12:43:20.379Z,45.72
2022-10-09T12:45:47.594Z,45.60
2022-10-09T12:48:18.622Z,45.56
2022-10-09T12:50:45.408Z,45.76
2022-10-09T12:53:22.387Z,45.52
2022-10-09T12:55:51.926Z,45.70
2022-10-09T12:58:23.618Z,45.57
2022-10-09T13:00:52.078Z,45.80
2022-10-09T13:03:26.990Z,45.97
2022-10-09T13:05:53.941Z,45.55
2022-10-09T13:08:35.177Z,45.70
2022-10-09T13:11:12.342Z,46.09
2022-10-09T13:13:39.469Z,45.55
2022-10-09T13:16:09.396Z,45.72
2022-10-09T13:18:37.188Z,45.74
2022-10-09T13:21:16.950Z,45.99
2022-10-09T13:23:43.978Z,45.97
2022-10-09T13:26:10.822Z,46.17
2022-10-09T13:28:37.816Z,46.39
2022-10-09T13:31:08.130Z,46.84
2022-10-09T13:33:35.201Z,47.16
2022-10-09T13:36:02.184Z,46.62
2022-10-09T13:38:32.642Z,46.85
2022-10-09T13:41:01.763Z,46.92
2022-10-09T13:43:29.137Z,47.23
2022-10-09T13:45:55.923Z,47.50
2022-10-09T13:48:23.593Z,47.05
2022-10-09T13:50:50.385Z,47.72
2022-10-09T13:53:17.457Z,47.67
2022-10-09T13:55:44.515Z,47.79
2022-10-09T13:58:11.277Z,47.77
2022-10-09T14:00:38.370Z,47.61
2022-10-09T14:03:06.873Z,47.85
2022-10-09T14:05:33.641Z,47.78
2022-10-09T14:08:00.492Z,47.59
2022-10-09T14:10:27.781Z,47.26
2022-10-09T14:12:54.629Z,47.02
2022-10-09T14:15:21.457Z,46.57
2022-10-09T14:17:48.715Z,46.71
2022-10-09T14:20:15.805Z,46.54
2022-10-09T14:22:42.609Z,46.21
2022-10-09T14:25:09.939Z,46.29
2022-10-09T14:27:39.209Z,45.51
2022-10-09T14:30:09.152Z,46.27
2022-10-09T14:32:36.195Z,46.93
2022-10-09T14:35:03.405Z,46.83
2022-10-09T14:37:41.134Z,46.94
2022-10-09T14:40:09.788Z,47.15
2022-10-09T14:42:37.832Z,47.03
2022-10-09T14:45:05.379Z,47.30
2022-10-09T14:47:32.175Z,47.45
2022-10-09T14:49:59.194Z,47.24
2022-10-09T14:52:26.037Z,46.86
2022-10-09T14:54:52.780Z,46.83
2022-10-09T14:57:19.967Z,47.03
2022-10-09T14:59:46.715Z,46.95
2022-10-09T15:02:14.814Z,47.27
2022-10-09T15:04:41.983Z,47.49
2022-10-09T15:07:08.837Z,47.57
2022-10-09T15:09:35.668Z,47.27
2022-10-09T15:12:03.026Z,47.23
2022-10-09T15:14:29.868Z,47.43
2022-10-09T15:16:56.644Z,47.73
2022-10-09T15:19:23.634Z,48.09
2022-10-09T15:21:50.536Z,47.80
2022-10-09T15:24:17.300Z,48.09
2022-10-09T15:26:44.285Z,47.58
2022-10-09T15:29:12.028Z,48.29
2022-10-09T15:31:40.267Z,47.98
2022-10-09T15:34:07.786Z,48.37
2022-10-09T15:36:36.752Z,48.00
2022-10-09T15:39:06.044Z,48.05
2022-10-09T15:41:34.731Z,48.42
2022-10-09T15:44:06.471Z,48.35
2022-10-09T15:46:33.538Z,48.63
2022-10-09T15:49:00.623Z,48.67
2022-10-09T15:51:29.293Z,48.62
2022-10-09T15:53:56.208Z,48.76
2022-10-09T15:56:24.177Z,48.64
2022-10-09T15:58:51.446Z,48.81
2022-10-09T16:01:18.412Z,48.60
2022-10-09T16:03:45.662Z,48.59
2022-10-09T16:06:14.077Z,49.15
2022-10-09T16:08:41.160Z,48.62
2022-10-09T16:11:09.997Z,48.81
2022-10-09T16:13:39.337Z,50.15
2022-10-09T16:16:07.233Z,49.27
2022-10-09T16:18:34.161Z,49.59
2022-10-09T16:21:08.877Z,49.74
2022-10-09T16:23:35.910Z,49.27
2022-10-09T16:26:03.343Z,49.26
2022-10-09T16:28:30.478Z,49.30
2022-10-09T16:30:57.317Z,49.28
2022-10-09T16:33:24.589Z,49.14
2022-10-09T16:35:51.469Z,49.59
2022-10-09T16:38:18.636Z,49.43
2022-10-09T16:41:02.556Z,49.33
2022-10-09T16:43:33.076Z,49.63
2022-10-09T16:46:13.404Z,49.55
2022-10-09T16:48:40.605Z,49.19
2022-10-09T16:51:11.796Z,49.56
2022-10-09T16:53:38.869Z,49.50
2022-10-09T16:56:14.222Z,49.64
2022-10-09T16:58:41.629Z,49.39
2022-10-09T17:01:10.314Z,49.66
2022-10-09T17:03:40.533Z,49.64
2022-10-09T17:06:09.276Z,49.15
2022-10-09T17:08:36.281Z,49.46
2022-10-09T17:11:09.202Z,49.57
2022-10-09T17:13:36.412Z,49.41
2022-10-09T17:16:07.633Z,49.84
2022-10-09T17:18:35.112Z,49.35
2022-10-09T17:21:06.884Z,49.66
2022-10-09T17:23:33.856Z,49.74
2022-10-09T17:26:11.909Z,49.30
2022-10-09T17:28:39.235Z,49.77
2022-10-09T17:31:07.949Z,49.56
2022-10-09T17:33:34.811Z,49.31
2022-10-09T17:36:02.061Z,49.40
2022-10-09T17:38:29.131Z,49.48
2022-10-09T17:40:55.893Z,49.87
2022-10-09T17:43:22.670Z,49.55
2022-10-09T17:45:49.712Z,49.43
2022-10-09T17:48:16.485Z,49.95
2022-10-09T17:50:50.997Z,49.70
2022-10-09T17:53:18.293Z,49.68
2022-10-09T17:55:45.073Z,49.67
2022-10-09T17:58:12.101Z,49.90
2022-10-09T18:00:38.959Z,49.61
2022-10-09T18:03:05.910Z,49.92
2022-10-09T18:05:32.900Z,50.05
2022-10-09T18:07:59.701Z,50.16
2022-10-09T18:10:26.487Z,49.98
2022-10-09T18:12:53.476Z,50.21
2022-10-09T18:15:20.368Z,50.06
2022-10-09T18:17:47.335Z,49.86
2022-10-09T18:20:14.678Z,49.92
2022-10-09T18:22:41.456Z,50.29
2022-10-09T18:25:08.257Z,50.24
2022-10-09T18:27:35.364Z,50.11
2022-10-09T18:30:02.199Z,50.21
2022-10-09T18:32:29.283Z,50.06
2022-10-09T18:34:56.059Z,49.98
2022-10-09T18:37:23.917Z,49.76
2022-10-09T18:39:50.721Z,49.96
2022-10-09T18:42:17.517Z,50.12
2022-10-09T18:44:44.532Z,50.16
2022-10-09T18:47:14.556Z,50.19
2022-10-09T18:49:45.433Z,50.08
2022-10-09T18:52:12.292Z,50.44
2022-10-09T18:54:39.331Z,50.19
2022-10-09T18:57:06.343Z,50.40
2022-10-09T18:59:33.559Z,50.29
2022-10-09T19:02:00.371Z,50.28
2022-10-09T19:04:27.340Z,50.50
2022-10-09T19:06:54.728Z,50.62
2022-10-09T19:09:21.703Z,50.49
2022-10-09T19:11:48.526Z,50.14
2022-10-09T19:14:15.951Z,50.58
2022-10-09T19:16:42.739Z,50.56
2022-10-09T19:19:09.779Z,50.40
2022-10-09T19:21:39.371Z,50.56
2022-10-09T19:24:07.154Z,50.40
2022-10-09T19:26:35.278Z,50.56
2022-10-09T19:29:02.374Z,50.75
2022-10-09T19:31:29.147Z,50.53
2022-10-09T19:33:55.951Z,50.50
2022-10-09T19:36:22.994Z,50.68
2022-10-09T19:38:49.830Z,50.41
2022-10-09T19:41:16.910Z,50.80
2022-10-09T19:43:43.727Z,50.49
2022-10-09T19:46:17.270Z,50.50
2022-10-09T19:48:44.756Z,50.48
2022-10-09T19:51:14.220Z,50.79
2022-10-09T19:53:42.330Z,50.67
2022-10-09T19:56:17.603Z,51.14
2022-10-09T19:58:45.142Z,50.92
2022-10-09T20:01:14.032Z,50.71
2022-10-09T20:03:41.398Z,51.05
2022-10-09T20:06:08.778Z,50.90
2022-10-09T20:08:36.496Z,50.94
2022-10-09T20:11:03.662Z,50.97
2022-10-09T20:13:34.206Z,51.02
2022-10-09T20:16:05.015Z,50.92
2022-10-09T20:18:32.229Z,50.79
2022-10-09T20:20:59.155Z,51.05
2022-10-09T20:23:26.685Z,50.68
2022-10-09T20:26:00.976Z,50.99
2022-10-09T20:28:27.911Z,50.77
2022-10-09T20:30:58.753Z,50.91
2022-10-09T20:33:26.793Z,51.15
2022-10-09T20:35:53.822Z,50.91
2022-10-09T20:38:25.428Z,50.78
2022-10-09T20:40:52.938Z,51.02
2022-10-09T20:43:19.689Z,51.25
2022-10-09T20:45:46.697Z,51.01
2022-10-09T20:48:13.475Z,50.94
2022-10-09T20:50:41.205Z,51.17
2022-10-09T20:53:09.858Z,50.89
2022-10-09T20:55:36.902Z,51.15
2022-10-09T20:58:03.897Z,51.16
2022-10-09T21:00:30.887Z,50.86
2022-10-09T21:02:57.762Z,51.11
2022-10-09T21:05:24.802Z,51.04
2022-10-09T21:07:51.572Z,50.99
2022-10-09T21:10:18.700Z,50.99
2022-10-09T21:12:45.465Z,50.88
2022-10-09T21:15:12.486Z,50.88
2022-10-09T21:17:39.253Z,51.10
2022-10-09T21:20:06.601Z,50.93
2022-10-09T21:22:34.901Z,51.18
2022-10-09T21:25:01.867Z,50.92
2022-10-09T21:27:28.700Z,50.93
2022-10-09T21:29:56.561Z,50.88
2022-10-09T21:32:23.372Z,50.93
2022-10-09T21:34:50.657Z,51.17
2022-10-09T21:37:21.278Z,50.96
2022-10-09T21:39:49.218Z,51.05
2022-10-09T21:42:15.967Z,50.98
2022-10-09T21:44:42.946Z,50.91
2022-10-09T21:47:14.283Z,51.21
2022-10-09T21:49:41.854Z,51.08
2022-10-09T21:52:09.910Z,51.11
2022-10-09T21:54:36.948Z,51.11
2022-10-09T21:57:03.783Z,51.20
2022-10-09T21:59:30.552Z,51.24
2022-10-09T22:01:57.577Z,50.95
2022-10-09T22:04:24.410Z,51.17
2022-10-09T22:06:51.228Z,50.75
2022-10-09T22:09:18.354Z,50.77
2022-10-09T22:11:45.172Z,51.03
2022-10-09T22:14:12.175Z,51.16
2022-10-09T22:16:39.299Z,50.83
2022-10-09T22:19:06.046Z,51.16
2022-10-09T22:21:33.197Z,50.84
2022-10-09T22:24:00.738Z,51.03
2022-10-09T22:26:27.838Z,51.09
2022-10-09T22:28:54.621Z,51.25
2022-10-09T22:31:23.249Z,51.21
2022-10-09T22:33:57.721Z,51.16
2022-10-09T22:36:26.496Z,51.08
2022-10-09T22:38:54.380Z,51.22
2022-10-09T22:41:21.864Z,51.28
2022-10-09T22:43:50.239Z,51.23
2022-10-09T22:46:19.268Z,51.17
2022-10-09T22:48:46.089Z,50.93
2022-10-09T22:51:14.324Z,51.51
2022-10-09T22:53:41.921Z,51.26
2022-10-09T22:56:12.193Z,51.09
2022-10-09T22:58:39.229Z,51.29
2022-10-09T23:01:07.534Z,51.30
2022-10-09T23:03:34.765Z,51.18
2022-10-09T23:06:09.220Z,51.39
2022-10-09T23:08:38.144Z,51.63
2022-10-09T23:11:05.340Z,51.35
2022-10-09T23:13:32.616Z,51.27
2022-10-09T23:16:00.460Z,51.17
2022-10-09T23:18:28.132Z,51.24
2022-10-09T23:20:54.912Z,51.20
2022-10-09T23:23:21.908Z,51.29
2022-10-09T23:25:48.720Z,51.19
2022-10-09T23:28:16.125Z,51.33
2022-10-09T23:30:42.885Z,51.30
2022-10-09T23:33:09.956Z,51.22
2022-10-09T23:35:41.231Z,51.67
2022-10-09T23:38:08.332Z,51.25
2022-10-09T23:40:35.216Z,51.25
2022-10-09T23:43:02.184Z,51.22
2022-10-09T23:45:28.948Z,51.40
2022-10-09T23:47:56.299Z,51.15
2022-10-09T23:50:23.116Z,51.20
2022-10-09T23:52:50.353Z,51.45
2022-10-09T23:55:17.339Z,51.34
2022-10-09T23:57:44.375Z,51.27
